sensor_id;sensor_type;location;lat;lon;timestamp;temperature;humidity
2873;DHT22;1444;49.166;7.312;2024-03-29T00:01:54;7.50;99.90
2873;DHT22;1444;49.166;7.312;2024-03-29T00:04:19;7.50;99.90
2873;DHT22;1444;49.166;7.312;2024-03-29T00:09:11;7.60;99.90
2873;DHT22;1444;49.166;7.312;2024-03-29T00:11:38;7.60;99.90
2873;DHT22;1444;49.166;7.312;2024-03-29T00:14:05;7.70;99.90
2873;DHT22;1444;49.166;7.312;2024-03-29T00:16:30;7.70;99.90
2873;DHT22;1444;49.166;7.312;2024-03-29T00:18:56;7.70;99.90
2873;DHT22;1444;49.166;7.312;2024-03-29T00:21:22;7.80;99.90
2873;DHT22;1444;49.166;7.312;2024-03-29T00:23:48;7.80;99.90
2873;DHT22;1444;49.166;7.312;2024-03-29T00:26:16;7.80;99.90
2873;DHT22;1444;49.166;7.312;2024-03-29T00:28:42;7.80;99.90
2873;DHT22;1444;49.166;7.312;2024-03-29T00:31:09;7.90;99.90
2873;DHT22;1444;49.166;7.312;2024-03-29T00:33:35;7.90;99.90
2873;DHT22;1444;49.166;7.312;2024-03-29T00:36:01;8.00;99.90
2873;DHT22;1444;49.166;7.312;2024-03-29T00:38:27;7.90;99.90
2873;DHT22;1444;49.166;7.312;2024-03-29T00:40:53;8.00;99.90
2873;DHT22;1444;49.166;7.312;2024-03-29T00:43:19;8.00;99.90
2873;DHT22;1444;49.166;7.312;2024-03-29T00:45:45;8.00;99.90
2873;DHT22;1444;49.166;7.312;2024-03-29T00:50:40;8.00;99.90
2873;DHT22;1444;49.166;7.312;2024-03-29T00:53:06;8.00;99.90
2873;DHT22;1444;49.166;7.312;2024-03-29T00:55:32;8.00;99.90
2873;DHT22;1444;49.166;7.312;2024-03-29T00:57:58;8.00;99.90
2873;DHT22;1444;49.166;7.312;2024-03-29T01:00:24;8.00;99.90
2873;DHT22;1444;49.166;7.312;2024-03-29T01:02:50;7.90;99.90
2873;DHT22;1444;49.166;7.312;2024-03-29T01:05:16;7.90;99.90
2873;DHT22;1444;49.166;7.312;2024-03-29T01:07:42;7.80;99.90
2873;DHT22;1444;49.166;7.312;2024-03-29T01:10:09;7.90;99.90
2873;DHT22;1444;49.166;7.312;2024-03-29T01:12:35;7.90;99.90
2873;DHT22;1444;49.166;7.312;2024-03-29T01:15:00;7.90;99.90
2873;DHT22;1444;49.166;7.312;2024-03-29T01:17:26;7.80;99.90
2873;DHT22;1444;49.166;7.312;2024-03-29T01:19:52;7.90;99.90
2873;DHT22;1444;49.166;7.312;2024-03-29T01:22:19;7.90;99.90
2873;DHT22;1444;49.166;7.312;2024-03-29T01:24:44;7.80;99.90
2873;DHT22;1444;49.166;7.312;2024-03-29T01:27:10;7.90;99.90
2873;DHT22;1444;49.166;7.312;2024-03-29T01:29:36;8.00;99.90
2873;DHT22;1444;49.166;7.312;2024-03-29T01:32:03;8.00;99.90
2873;DHT22;1444;49.166;7.312;2024-03-29T01:34:29;8.10;99.90
2873;DHT22;1444;49.166;7.312;2024-03-29T01:36:55;8.10;99.90
2873;DHT22;1444;49.166;7.312;2024-03-29T01:39:22;8.00;99.90
2873;DHT22;1444;49.166;7.312;2024-03-29T01:41:54;8.00;99.90
2873;DHT22;1444;49.166;7.312;2024-03-29T01:44:19;8.00;99.90
2873;DHT22;1444;49.166;7.312;2024-03-29T01:46:46;7.90;99.90
2873;DHT22;1444;49.166;7.312;2024-03-29T01:49:13;7.90;99.90
2873;DHT22;1444;49.166;7.312;2024-03-29T01:51:40;7.70;99.90
2873;DHT22;1444;49.166;7.312;2024-03-29T01:54:08;7.70;99.90
2873;DHT22;1444;49.166;7.312;2024-03-29T01:56:35;7.80;99.90
2873;DHT22;1444;49.166;7.312;2024-03-29T01:59:03;8.00;99.90
2873;DHT22;1444;49.166;7.312;2024-03-29T02:01:30;8.00;99.90
2873;DHT22;1444;49.166;7.312;2024-03-29T02:03:56;8.00;99.90
2873;DHT22;1444;49.166;7.312;2024-03-29T02:06:23;8.00;99.90
2873;DHT22;1444;49.166;7.312;2024-03-29T02:08:51;8.20;99.90
2873;DHT22;1444;49.166;7.312;2024-03-29T02:11:18;8.10;99.90
2873;DHT22;1444;49.166;7.312;2024-03-29T02:13:46;8.20;99.90
2873;DHT22;1444;49.166;7.312;2024-03-29T02:16:12;8.30;99.90
2873;DHT22;1444;49.166;7.312;2024-03-29T02:18:38;8.30;99.90
2873;DHT22;1444;49.166;7.312;2024-03-29T02:21:04;8.40;99.90
2873;DHT22;1444;49.166;7.312;2024-03-29T02:23:32;8.50;99.90
2873;DHT22;1444;49.166;7.312;2024-03-29T02:26:02;8.60;99.90
2873;DHT22;1444;49.166;7.312;2024-03-29T02:28:30;8.60;99.90
2873;DHT22;1444;49.166;7.312;2024-03-29T02:30:56;8.60;99.90
2873;DHT22;1444;49.166;7.312;2024-03-29T02:33:22;8.80;99.90
2873;DHT22;1444;49.166;7.312;2024-03-29T02:35:48;8.90;99.90
2873;DHT22;1444;49.166;7.312;2024-03-29T02:40:41;9.00;99.90
2873;DHT22;1444;49.166;7.312;2024-03-29T02:43:08;9.10;99.90
2873;DHT22;1444;49.166;7.312;2024-03-29T02:45:34;9.00;99.90
2873;DHT22;1444;49.166;7.312;2024-03-29T02:48:00;9.00;99.90
2873;DHT22;1444;49.166;7.312;2024-03-29T02:50:26;9.00;99.90
2873;DHT22;1444;49.166;7.312;2024-03-29T02:52:52;9.10;99.90
2873;DHT22;1444;49.166;7.312;2024-03-29T02:55:18;9.20;99.90
2873;DHT22;1444;49.166;7.312;2024-03-29T02:57:44;9.10;99.90
2873;DHT22;1444;49.166;7.312;2024-03-29T03:00:12;9.00;99.90
2873;DHT22;1444;49.166;7.312;2024-03-29T03:02:38;9.10;99.90
2873;DHT22;1444;49.166;7.312;2024-03-29T03:05:05;9.10;99.90
2873;DHT22;1444;49.166;7.312;2024-03-29T03:07:32;9.00;99.90
2873;DHT22;1444;49.166;7.312;2024-03-29T03:10:16;9.00;99.90
2873;DHT22;1444;49.166;7.312;2024-03-29T03:13:01;8.90;99.90
2873;DHT22;1444;49.166;7.312;2024-03-29T03:15:27;9.00;99.90
2873;DHT22;1444;49.166;7.312;2024-03-29T03:17:53;9.00;99.90
2873;DHT22;1444;49.166;7.312;2024-03-29T03:20:19;9.20;99.90
2873;DHT22;1444;49.166;7.312;2024-03-29T03:22:45;9.20;99.90
2873;DHT22;1444;49.166;7.312;2024-03-29T03:25:11;9.20;99.90
2873;DHT22;1444;49.166;7.312;2024-03-29T03:27:37;9.20;99.90
2873;DHT22;1444;49.166;7.312;2024-03-29T03:30:04;9.30;99.90
2873;DHT22;1444;49.166;7.312;2024-03-29T03:32:31;9.30;99.90
2873;DHT22;1444;49.166;7.312;2024-03-29T03:34:57;9.40;99.90
2873;DHT22;1444;49.166;7.312;2024-03-29T03:37:23;9.40;99.90
2873;DHT22;1444;49.166;7.312;2024-03-29T03:39:49;9.50;99.90
2873;DHT22;1444;49.166;7.312;2024-03-29T03:42:14;9.50;99.90
2873;DHT22;1444;49.166;7.312;2024-03-29T03:44:40;9.50;99.90
2873;DHT22;1444;49.166;7.312;2024-03-29T03:47:06;9.60;99.90
2873;DHT22;1444;49.166;7.312;2024-03-29T03:49:33;9.60;99.90
2873;DHT22;1444;49.166;7.312;2024-03-29T03:51:59;9.60;99.90
2873;DHT22;1444;49.166;7.312;2024-03-29T03:54:26;9.50;99.90
2873;DHT22;1444;49.166;7.312;2024-03-29T03:56:51;9.40;99.90
2873;DHT22;1444;49.166;7.312;2024-03-29T03:59:18;9.50;99.90
2873;DHT22;1444;49.166;7.312;2024-03-29T04:04:16;9.50;99.90
2873;DHT22;1444;49.166;7.312;2024-03-29T04:06:43;9.50;99.90
2873;DHT22;1444;49.166;7.312;2024-03-29T04:11:35;9.50;99.90
2873;DHT22;1444;49.166;7.312;2024-03-29T04:14:03;9.50;99.90
2873;DHT22;1444;49.166;7.312;2024-03-29T04:16:29;9.40;99.90
2873;DHT22;1444;49.166;7.312;2024-03-29T04:18:55;9.50;99.90
2873;DHT22;1444;49.166;7.312;2024-03-29T04:21:21;9.50;99.90
2873;DHT22;1444;49.166;7.312;2024-03-29T04:23:48;9.60;99.90
2873;DHT22;1444;49.166;7.312;2024-03-29T04:26:13;9.60;99.90
2873;DHT22;1444;49.166;7.312;2024-03-29T04:28:39;9.70;99.90
2873;DHT22;1444;49.166;7.312;2024-03-29T04:31:05;9.70;99.90
2873;DHT22;1444;49.166;7.312;2024-03-29T04:33:31;9.70;99.90
2873;DHT22;1444;49.166;7.312;2024-03-29T04:35:58;9.70;99.90
2873;DHT22;1444;49.166;7.312;2024-03-29T04:38:25;9.70;99.90
2873;DHT22;1444;49.166;7.312;2024-03-29T04:40:54;9.70;99.90
2873;DHT22;1444;49.166;7.312;2024-03-29T04:43:22;9.70;99.90
2873;DHT22;1444;49.166;7.312;2024-03-29T04:45:48;9.70;99.90
2873;DHT22;1444;49.166;7.312;2024-03-29T04:48:15;9.70;99.90
2873;DHT22;1444;49.166;7.312;2024-03-29T04:50:41;9.70;99.90
2873;DHT22;1444;49.166;7.312;2024-03-29T04:53:08;9.70;99.90
2873;DHT22;1444;49.166;7.312;2024-03-29T04:55:34;9.70;99.90
2873;DHT22;1444;49.166;7.312;2024-03-29T04:58:01;9.70;99.90
2873;DHT22;1444;49.166;7.312;2024-03-29T05:00:28;9.70;99.90
2873;DHT22;1444;49.166;7.312;2024-03-29T05:02:54;9.70;99.90
2873;DHT22;1444;49.166;7.312;2024-03-29T05:05:20;9.70;99.90
2873;DHT22;1444;49.166;7.312;2024-03-29T05:07:46;9.70;99.90
2873;DHT22;1444;49.166;7.312;2024-03-29T05:10:12;9.80;99.90
2873;DHT22;1444;49.166;7.312;2024-03-29T05:12:38;9.80;99.90
2873;DHT22;1444;49.166;7.312;2024-03-29T05:15:06;9.80;99.90
2873;DHT22;1444;49.166;7.312;2024-03-29T05:17:32;9.80;99.90
2873;DHT22;1444;49.166;7.312;2024-03-29T05:19:58;9.80;99.90
2873;DHT22;1444;49.166;7.312;2024-03-29T05:22:25;9.90;99.90
2873;DHT22;1444;49.166;7.312;2024-03-29T05:24:53;9.80;99.90
2873;DHT22;1444;49.166;7.312;2024-03-29T05:27:19;9.80;99.90
2873;DHT22;1444;49.166;7.312;2024-03-29T05:29:45;9.80;99.90
2873;DHT22;1444;49.166;7.312;2024-03-29T05:32:12;9.90;99.90
2873;DHT22;1444;49.166;7.312;2024-03-29T05:34:38;9.80;99.90
2873;DHT22;1444;49.166;7.312;2024-03-29T05:37:04;9.80;99.90
2873;DHT22;1444;49.166;7.312;2024-03-29T05:39:31;9.90;99.90
2873;DHT22;1444;49.166;7.312;2024-03-29T05:41:57;9.90;99.90
2873;DHT22;1444;49.166;7.312;2024-03-29T05:44:23;10.00;99.90
2873;DHT22;1444;49.166;7.312;2024-03-29T05:46:50;10.00;99.90
2873;DHT22;1444;49.166;7.312;2024-03-29T05:49:16;10.00;99.90
2873;DHT22;1444;49.166;7.312;2024-03-29T05:51:42;9.90;99.90
2873;DHT22;1444;49.166;7.312;2024-03-29T05:54:09;9.90;99.90
2873;DHT22;1444;49.166;7.312;2024-03-29T05:56:35;9.80;99.90
2873;DHT22;1444;49.166;7.312;2024-03-29T05:59:01;9.80;99.90
2873;DHT22;1444;49.166;7.312;2024-03-29T06:01:27;9.80;99.90
2873;DHT22;1444;49.166;7.312;2024-03-29T06:03:53;9.90;99.90
2873;DHT22;1444;49.166;7.312;2024-03-29T06:06:22;10.00;99.90
2873;DHT22;1444;49.166;7.312;2024-03-29T06:08:49;10.00;99.90
2873;DHT22;1444;49.166;7.312;2024-03-29T06:11:15;10.00;99.90
2873;DHT22;1444;49.166;7.312;2024-03-29T06:13:41;10.10;99.90
2873;DHT22;1444;49.166;7.312;2024-03-29T06:16:27;10.10;99.90
2873;DHT22;1444;49.166;7.312;2024-03-29T06:19:12;10.00;99.90
2873;DHT22;1444;49.166;7.312;2024-03-29T06:21:39;9.90;99.90
2873;DHT22;1444;49.166;7.312;2024-03-29T06:24:06;10.00;99.90
2873;DHT22;1444;49.166;7.312;2024-03-29T06:26:32;10.00;99.90
2873;DHT22;1444;49.166;7.312;2024-03-29T06:28:58;10.00;99.90
2873;DHT22;1444;49.166;7.312;2024-03-29T06:31:24;10.00;99.90
2873;DHT22;1444;49.166;7.312;2024-03-29T06:33:50;10.00;99.90
2873;DHT22;1444;49.166;7.312;2024-03-29T06:36:16;10.00;99.90
2873;DHT22;1444;49.166;7.312;2024-03-29T06:38:43;10.10;99.90
2873;DHT22;1444;49.166;7.312;2024-03-29T06:41:10;10.10;99.90
2873;DHT22;1444;49.166;7.312;2024-03-29T06:43:36;10.10;99.90
2873;DHT22;1444;49.166;7.312;2024-03-29T06:46:02;10.10;99.90
2873;DHT22;1444;49.166;7.312;2024-03-29T06:48:29;10.10;99.90
2873;DHT22;1444;49.166;7.312;2024-03-29T06:50:56;10.10;99.90
2873;DHT22;1444;49.166;7.312;2024-03-29T06:53:22;10.10;99.90
2873;DHT22;1444;49.166;7.312;2024-03-29T06:55:49;10.20;99.90
2873;DHT22;1444;49.166;7.312;2024-03-29T06:58:16;10.20;99.90
2873;DHT22;1444;49.166;7.312;2024-03-29T07:00:43;10.30;99.90
2873;DHT22;1444;49.166;7.312;2024-03-29T07:03:09;10.40;99.90
2873;DHT22;1444;49.166;7.312;2024-03-29T07:05:35;10.40;99.90
2873;DHT22;1444;49.166;7.312;2024-03-29T07:08:02;10.50;99.90
2873;DHT22;1444;49.166;7.312;2024-03-29T07:10:28;10.50;99.90
2873;DHT22;1444;49.166;7.312;2024-03-29T07:12:55;10.50;99.90
2873;DHT22;1444;49.166;7.312;2024-03-29T07:15:22;10.60;99.90
2873;DHT22;1444;49.166;7.312;2024-03-29T07:17:48;10.60;99.90
2873;DHT22;1444;49.166;7.312;2024-03-29T07:20:15;10.70;99.90
2873;DHT22;1444;49.166;7.312;2024-03-29T07:22:42;10.70;99.90
2873;DHT22;1444;49.166;7.312;2024-03-29T07:25:08;10.70;99.90
2873;DHT22;1444;49.166;7.312;2024-03-29T07:27:34;10.60;99.90
2873;DHT22;1444;49.166;7.312;2024-03-29T07:30:02;10.70;99.90
2873;DHT22;1444;49.166;7.312;2024-03-29T07:32:29;10.60;99.90
2873;DHT22;1444;49.166;7.312;2024-03-29T07:34:55;10.70;99.90
2873;DHT22;1444;49.166;7.312;2024-03-29T07:37:23;10.70;99.90
2873;DHT22;1444;49.166;7.312;2024-03-29T07:39:49;10.80;99.90
2873;DHT22;1444;49.166;7.312;2024-03-29T07:42:15;10.80;99.90
2873;DHT22;1444;49.166;7.312;2024-03-29T07:44:42;10.70;99.90
2873;DHT22;1444;49.166;7.312;2024-03-29T07:47:09;10.60;99.90
2873;DHT22;1444;49.166;7.312;2024-03-29T07:49:35;10.60;99.90
2873;DHT22;1444;49.166;7.312;2024-03-29T07:52:03;10.50;99.90
2873;DHT22;1444;49.166;7.312;2024-03-29T07:54:31;10.50;99.90
2873;DHT22;1444;49.166;7.312;2024-03-29T07:56:57;10.60;99.90
2873;DHT22;1444;49.166;7.312;2024-03-29T07:59:23;10.60;99.90
2873;DHT22;1444;49.166;7.312;2024-03-29T08:01:49;10.80;99.90
2873;DHT22;1444;49.166;7.312;2024-03-29T08:04:16;10.90;99.90
2873;DHT22;1444;49.166;7.312;2024-03-29T08:06:42;10.90;99.90
2873;DHT22;1444;49.166;7.312;2024-03-29T08:09:08;11.00;99.90
2873;DHT22;1444;49.166;7.312;2024-03-29T08:11:35;11.00;99.90
2873;DHT22;1444;49.166;7.312;2024-03-29T08:14:01;11.00;99.90
2873;DHT22;1444;49.166;7.312;2024-03-29T08:18:54;11.10;99.90
2873;DHT22;1444;49.166;7.312;2024-03-29T08:21:21;11.10;99.90
2873;DHT22;1444;49.166;7.312;2024-03-29T08:23:47;11.20;99.90
2873;DHT22;1444;49.166;7.312;2024-03-29T08:26:13;11.20;99.90
2873;DHT22;1444;49.166;7.312;2024-03-29T08:28:39;11.20;99.90
2873;DHT22;1444;49.166;7.312;2024-03-29T08:31:07;11.30;99.90
2873;DHT22;1444;49.166;7.312;2024-03-29T08:33:34;11.30;99.90
2873;DHT22;1444;49.166;7.312;2024-03-29T08:36:03;11.30;99.90
2873;DHT22;1444;49.166;7.312;2024-03-29T08:38:30;11.40;99.90
2873;DHT22;1444;49.166;7.312;2024-03-29T08:40:56;11.40;99.90
2873;DHT22;1444;49.166;7.312;2024-03-29T08:43:23;11.40;99.90
2873;DHT22;1444;49.166;7.312;2024-03-29T08:45:49;11.50;99.90
2873;DHT22;1444;49.166;7.312;2024-03-29T08:48:15;11.50;99.90
2873;DHT22;1444;49.166;7.312;2024-03-29T08:50:42;11.50;99.90
2873;DHT22;1444;49.166;7.312;2024-03-29T08:53:08;11.60;99.90
2873;DHT22;1444;49.166;7.312;2024-03-29T08:55:35;11.60;99.90
2873;DHT22;1444;49.166;7.312;2024-03-29T08:58:02;11.50;99.90
2873;DHT22;1444;49.166;7.312;2024-03-29T09:00:30;11.50;99.90
2873;DHT22;1444;49.166;7.312;2024-03-29T09:02:56;11.50;99.90
2873;DHT22;1444;49.166;7.312;2024-03-29T09:05:22;11.40;99.90
2873;DHT22;1444;49.166;7.312;2024-03-29T09:07:49;11.40;99.90
2873;DHT22;1444;49.166;7.312;2024-03-29T09:10:15;11.40;99.90
2873;DHT22;1444;49.166;7.312;2024-03-29T09:12:43;11.60;99.90
2873;DHT22;1444;49.166;7.312;2024-03-29T09:15:12;11.60;99.90
2873;DHT22;1444;49.166;7.312;2024-03-29T09:17:39;11.70;99.90
2873;DHT22;1444;49.166;7.312;2024-03-29T09:20:06;11.90;99.90
2873;DHT22;1444;49.166;7.312;2024-03-29T09:22:32;11.90;99.90
2873;DHT22;1444;49.166;7.312;2024-03-29T09:27:26;12.00;99.90
2873;DHT22;1444;49.166;7.312;2024-03-29T09:29:54;11.90;99.90
2873;DHT22;1444;49.166;7.312;2024-03-29T09:32:20;12.00;99.90
2873;DHT22;1444;49.166;7.312;2024-03-29T09:34:47;12.00;99.90
2873;DHT22;1444;49.166;7.312;2024-03-29T09:37:13;11.90;99.90
2873;DHT22;1444;49.166;7.312;2024-03-29T09:39:39;12.00;99.90
2873;DHT22;1444;49.166;7.312;2024-03-29T09:42:06;12.00;99.90
2873;DHT22;1444;49.166;7.312;2024-03-29T09:44:34;12.00;99.90
2873;DHT22;1444;49.166;7.312;2024-03-29T09:47:03;12.10;99.90
2873;DHT22;1444;49.166;7.312;2024-03-29T09:49:31;12.10;99.90
2873;DHT22;1444;49.166;7.312;2024-03-29T09:51:58;12.30;99.90
2873;DHT22;1444;49.166;7.312;2024-03-29T09:54:26;12.30;99.90
2873;DHT22;1444;49.166;7.312;2024-03-29T09:56:53;12.10;99.90
2873;DHT22;1444;49.166;7.312;2024-03-29T09:59:20;12.10;99.90
2873;DHT22;1444;49.166;7.312;2024-03-29T10:01:50;12.20;99.90
2873;DHT22;1444;49.166;7.312;2024-03-29T10:04:18;12.10;99.90
2873;DHT22;1444;49.166;7.312;2024-03-29T10:06:46;12.20;99.90
2873;DHT22;1444;49.166;7.312;2024-03-29T10:09:15;12.20;99.90
2873;DHT22;1444;49.166;7.312;2024-03-29T10:11:42;12.10;99.90
2873;DHT22;1444;49.166;7.312;2024-03-29T10:14:08;12.10;99.90
2873;DHT22;1444;49.166;7.312;2024-03-29T10:16:34;12.20;99.90
2873;DHT22;1444;49.166;7.312;2024-03-29T10:19:00;12.30;99.90
2873;DHT22;1444;49.166;7.312;2024-03-29T10:21:27;12.40;99.90
2873;DHT22;1444;49.166;7.312;2024-03-29T10:23:54;12.40;99.90
2873;DHT22;1444;49.166;7.312;2024-03-29T10:26:20;12.30;99.90
2873;DHT22;1444;49.166;7.312;2024-03-29T10:28:47;12.30;99.90
2873;DHT22;1444;49.166;7.312;2024-03-29T10:31:13;12.30;99.90
2873;DHT22;1444;49.166;7.312;2024-03-29T10:33:42;12.30;99.90
2873;DHT22;1444;49.166;7.312;2024-03-29T10:36:08;12.30;99.90
2873;DHT22;1444;49.166;7.312;2024-03-29T10:38:38;12.30;99.90
2873;DHT22;1444;49.166;7.312;2024-03-29T10:41:05;12.20;99.90
2873;DHT22;1444;49.166;7.312;2024-03-29T10:43:32;12.00;99.90
2873;DHT22;1444;49.166;7.312;2024-03-29T10:45:59;12.10;99.90
2873;DHT22;1444;49.166;7.312;2024-03-29T10:48:26;11.80;99.90
2873;DHT22;1444;49.166;7.312;2024-03-29T10:50:54;11.70;99.90
2873;DHT22;1444;49.166;7.312;2024-03-29T10:53:21;11.60;99.90
2873;DHT22;1444;49.166;7.312;2024-03-29T10:55:51;11.50;99.90
2873;DHT22;1444;49.166;7.312;2024-03-29T10:58:20;11.50;99.90
2873;DHT22;1444;49.166;7.312;2024-03-29T11:00:53;11.50;99.90
2873;DHT22;1444;49.166;7.312;2024-03-29T11:03:28;11.60;99.90
2873;DHT22;1444;49.166;7.312;2024-03-29T11:06:01;11.70;99.90
2873;DHT22;1444;49.166;7.312;2024-03-29T11:08:31;11.80;99.90
2873;DHT22;1444;49.166;7.312;2024-03-29T11:11:02;11.80;99.90
2873;DHT22;1444;49.166;7.312;2024-03-29T11:13:33;11.80;99.90
2873;DHT22;1444;49.166;7.312;2024-03-29T11:16:00;11.90;99.90
2873;DHT22;1444;49.166;7.312;2024-03-29T11:18:27;12.00;99.90
2873;DHT22;1444;49.166;7.312;2024-03-29T11:20:56;12.10;99.90
2873;DHT22;1444;49.166;7.312;2024-03-29T11:23:24;12.30;99.90
2873;DHT22;1444;49.166;7.312;2024-03-29T11:25:51;12.20;99.90
2873;DHT22;1444;49.166;7.312;2024-03-29T11:28:26;12.20;99.90
2873;DHT22;1444;49.166;7.312;2024-03-29T11:30:57;12.20;99.90
2873;DHT22;1444;49.166;7.312;2024-03-29T11:33:29;12.20;99.90
2873;DHT22;1444;49.166;7.312;2024-03-29T11:35:55;12.20;99.90
2873;DHT22;1444;49.166;7.312;2024-03-29T11:38:22;12.20;99.90
2873;DHT22;1444;49.166;7.312;2024-03-29T11:40:55;12.20;99.90
2873;DHT22;1444;49.166;7.312;2024-03-29T11:45:55;12.30;99.90
2873;DHT22;1444;49.166;7.312;2024-03-29T11:48:24;12.30;99.90
2873;DHT22;1444;49.166;7.312;2024-03-29T11:50:51;12.30;99.90
2873;DHT22;1444;49.166;7.312;2024-03-29T11:53:17;12.50;99.90
2873;DHT22;1444;49.166;7.312;2024-03-29T11:58:10;12.60;99.90
2873;DHT22;1444;49.166;7.312;2024-03-29T12:00:38;12.70;99.90
2873;DHT22;1444;49.166;7.312;2024-03-29T12:03:05;12.70;99.90
2873;DHT22;1444;49.166;7.312;2024-03-29T12:05:33;12.70;99.90
2873;DHT22;1444;49.166;7.312;2024-03-29T12:07:59;12.80;99.90
2873;DHT22;1444;49.166;7.312;2024-03-29T12:10:26;12.90;99.90
2873;DHT22;1444;49.166;7.312;2024-03-29T12:12:56;12.90;99.90
2873;DHT22;1444;49.166;7.312;2024-03-29T12:15:23;12.80;99.90
2873;DHT22;1444;49.166;7.312;2024-03-29T12:17:54;12.90;99.90
2873;DHT22;1444;49.166;7.312;2024-03-29T12:20:20;12.80;99.90
2873;DHT22;1444;49.166;7.312;2024-03-29T12:22:46;12.90;99.90
2873;DHT22;1444;49.166;7.312;2024-03-29T12:25:12;12.80;99.90
2873;DHT22;1444;49.166;7.312;2024-03-29T12:27:39;12.70;99.90
2873;DHT22;1444;49.166;7.312;2024-03-29T12:30:06;12.70;99.90
2873;DHT22;1444;49.166;7.312;2024-03-29T12:32:33;12.60;99.90
2873;DHT22;1444;49.166;7.312;2024-03-29T12:35:07;12.60;99.90
2873;DHT22;1444;49.166;7.312;2024-03-29T12:37:34;12.70;99.90
2873;DHT22;1444;49.166;7.312;2024-03-29T12:40:00;12.80;99.90
2873;DHT22;1444;49.166;7.312;2024-03-29T12:42:29;13.00;99.90
2873;DHT22;1444;49.166;7.312;2024-03-29T12:44:56;13.10;99.90
2873;DHT22;1444;49.166;7.312;2024-03-29T12:47:22;13.20;99.90
2873;DHT22;1444;49.166;7.312;2024-03-29T12:49:48;13.20;99.90
2873;DHT22;1444;49.166;7.312;2024-03-29T12:52:15;13.20;99.90
2873;DHT22;1444;49.166;7.312;2024-03-29T12:54:41;13.10;99.90
2873;DHT22;1444;49.166;7.312;2024-03-29T12:57:07;13.00;99.90
2873;DHT22;1444;49.166;7.312;2024-03-29T12:59:34;13.10;99.90
2873;DHT22;1444;49.166;7.312;2024-03-29T13:02:00;13.20;99.90
2873;DHT22;1444;49.166;7.312;2024-03-29T13:04:26;13.20;99.90
2873;DHT22;1444;49.166;7.312;2024-03-29T13:06:52;13.10;99.90
2873;DHT22;1444;49.166;7.312;2024-03-29T13:09:19;13.10;99.90
2873;DHT22;1444;49.166;7.312;2024-03-29T13:11:45;12.90;99.90
2873;DHT22;1444;49.166;7.312;2024-03-29T13:14:11;12.80;99.90
2873;DHT22;1444;49.166;7.312;2024-03-29T13:16:37;12.70;99.90
2873;DHT22;1444;49.166;7.312;2024-03-29T13:19:05;12.70;99.90
2873;DHT22;1444;49.166;7.312;2024-03-29T13:21:31;12.70;99.90
2873;DHT22;1444;49.166;7.312;2024-03-29T13:23:57;12.60;99.90
2873;DHT22;1444;49.166;7.312;2024-03-29T13:26:24;12.60;99.90
2873;DHT22;1444;49.166;7.312;2024-03-29T13:28:50;12.70;99.90
2873;DHT22;1444;49.166;7.312;2024-03-29T13:31:16;12.70;99.90
2873;DHT22;1444;49.166;7.312;2024-03-29T13:33:42;12.70;99.90
2873;DHT22;1444;49.166;7.312;2024-03-29T13:36:08;12.90;99.90
2873;DHT22;1444;49.166;7.312;2024-03-29T13:38:34;12.90;99.90
2873;DHT22;1444;49.166;7.312;2024-03-29T13:41:01;13.00;99.90
2873;DHT22;1444;49.166;7.312;2024-03-29T13:43:29;12.90;99.90
2873;DHT22;1444;49.166;7.312;2024-03-29T13:48:23;13.20;99.90
2873;DHT22;1444;49.166;7.312;2024-03-29T13:50:49;13.30;99.90
2873;DHT22;1444;49.166;7.312;2024-03-29T13:53:15;13.50;99.90
2873;DHT22;1444;49.166;7.312;2024-03-29T13:55:41;13.50;99.90
2873;DHT22;1444;49.166;7.312;2024-03-29T13:58:07;13.50;99.90
2873;DHT22;1444;49.166;7.312;2024-03-29T14:00:34;13.40;99.90
2873;DHT22;1444;49.166;7.312;2024-03-29T14:03:00;13.50;99.90
2873;DHT22;1444;49.166;7.312;2024-03-29T14:05:27;13.50;99.90
2873;DHT22;1444;49.166;7.312;2024-03-29T14:07:53;13.60;99.90
2873;DHT22;1444;49.166;7.312;2024-03-29T14:10:20;13.60;99.90
2873;DHT22;1444;49.166;7.312;2024-03-29T14:12:46;13.70;99.90
2873;DHT22;1444;49.166;7.312;2024-03-29T14:15:12;13.80;99.90
2873;DHT22;1444;49.166;7.312;2024-03-29T14:17:39;13.90;99.90
2873;DHT22;1444;49.166;7.312;2024-03-29T14:20:06;13.90;99.90
2873;DHT22;1444;49.166;7.312;2024-03-29T14:22:33;13.90;99.90
2873;DHT22;1444;49.166;7.312;2024-03-29T14:25:00;13.90;99.90
2873;DHT22;1444;49.166;7.312;2024-03-29T14:27:28;13.90;99.90
2873;DHT22;1444;49.166;7.312;2024-03-29T14:29:54;14.00;99.90
2873;DHT22;1444;49.166;7.312;2024-03-29T14:32:21;14.10;99.90
2873;DHT22;1444;49.166;7.312;2024-03-29T14:34:48;14.20;99.90
2873;DHT22;1444;49.166;7.312;2024-03-29T14:37:14;14.20;99.90
2873;DHT22;1444;49.166;7.312;2024-03-29T14:39:42;14.30;99.90
2873;DHT22;1444;49.166;7.312;2024-03-29T14:42:09;14.30;99.90
2873;DHT22;1444;49.166;7.312;2024-03-29T14:44:38;14.20;99.90
2873;DHT22;1444;49.166;7.312;2024-03-29T14:47:04;14.10;99.90
2873;DHT22;1444;49.166;7.312;2024-03-29T14:49:31;14.20;99.90
2873;DHT22;1444;49.166;7.312;2024-03-29T14:51:58;14.20;99.90
2873;DHT22;1444;49.166;7.312;2024-03-29T14:54:24;14.30;99.90
2873;DHT22;1444;49.166;7.312;2024-03-29T14:56:50;14.40;99.90
2873;DHT22;1444;49.166;7.312;2024-03-29T14:59:16;14.40;99.90
2873;DHT22;1444;49.166;7.312;2024-03-29T15:01:42;14.20;99.90
2873;DHT22;1444;49.166;7.312;2024-03-29T15:04:09;14.20;99.90
2873;DHT22;1444;49.166;7.312;2024-03-29T15:06:35;14.10;99.90
2873;DHT22;1444;49.166;7.312;2024-03-29T15:09:01;14.00;99.90
2873;DHT22;1444;49.166;7.312;2024-03-29T15:11:29;14.00;99.90
2873;DHT22;1444;49.166;7.312;2024-03-29T15:13:55;13.90;99.90
2873;DHT22;1444;49.166;7.312;2024-03-29T15:16:21;14.00;99.90
2873;DHT22;1444;49.166;7.312;2024-03-29T15:18:48;14.00;99.90
2873;DHT22;1444;49.166;7.312;2024-03-29T15:21:14;14.10;99.90
2873;DHT22;1444;49.166;7.312;2024-03-29T15:23:40;14.10;99.90
2873;DHT22;1444;49.166;7.312;2024-03-29T15:26:07;14.20;99.90
2873;DHT22;1444;49.166;7.312;2024-03-29T15:28:34;14.40;99.90
2873;DHT22;1444;49.166;7.312;2024-03-29T15:33:47;14.70;99.90
2873;DHT22;1444;49.166;7.312;2024-03-29T15:36:14;14.70;99.90
2873;DHT22;1444;49.166;7.312;2024-03-29T15:38:40;14.70;99.90
2873;DHT22;1444;49.166;7.312;2024-03-29T15:41:07;14.70;99.90
2873;DHT22;1444;49.166;7.312;2024-03-29T15:43:34;14.50;99.90
2873;DHT22;1444;49.166;7.312;2024-03-29T15:46:01;14.50;99.90
2873;DHT22;1444;49.166;7.312;2024-03-29T15:48:28;14.40;99.90
2873;DHT22;1444;49.166;7.312;2024-03-29T15:50:54;14.30;99.90
2873;DHT22;1444;49.166;7.312;2024-03-29T15:53:20;14.20;99.90
2873;DHT22;1444;49.166;7.312;2024-03-29T15:55:46;14.20;99.90
2873;DHT22;1444;49.166;7.312;2024-03-29T15:58:14;14.30;99.90
2873;DHT22;1444;49.166;7.312;2024-03-29T16:00:43;14.30;99.90
2873;DHT22;1444;49.166;7.312;2024-03-29T16:03:10;14.30;99.90
2873;DHT22;1444;49.166;7.312;2024-03-29T16:05:36;14.40;99.90
2873;DHT22;1444;49.166;7.312;2024-03-29T16:08:03;14.40;99.90
2873;DHT22;1444;49.166;7.312;2024-03-29T16:12:55;14.50;99.90
2873;DHT22;1444;49.166;7.312;2024-03-29T16:15:24;14.50;99.90
2873;DHT22;1444;49.166;7.312;2024-03-29T16:17:50;14.70;99.90
2873;DHT22;1444;49.166;7.312;2024-03-29T16:20:16;14.80;99.90
2873;DHT22;1444;49.166;7.312;2024-03-29T16:22:42;14.90;99.90
2873;DHT22;1444;49.166;7.312;2024-03-29T16:25:08;15.00;99.90
2873;DHT22;1444;49.166;7.312;2024-03-29T16:27:34;15.10;99.90
2873;DHT22;1444;49.166;7.312;2024-03-29T16:30:00;15.20;99.90
2873;DHT22;1444;49.166;7.312;2024-03-29T16:32:27;15.20;99.90
2873;DHT22;1444;49.166;7.312;2024-03-29T16:34:55;15.30;99.90